sensor_id;sensor_type;location;lat;lon;timestamp;temperature;humidity
49052;DHT22;34866;48.670;18.260;2024-01-10T16:29:52;13.60;6451.20
49052;DHT22;34866;48.670;18.260;2024-01-10T16:32:18;38.40;128.00
49052;DHT22;34866;48.670;18.260;2024-01-10T16:34:46;38.40;6451.20
49052;DHT22;34866;48.670;18.260;2024-01-10T16:37:14;38.60;6451.20
49052;DHT22;34866;48.670;18.260;2024-01-10T16:39:39;38.60;6451.20
49052;DHT22;34866;48.670;18.260;2024-01-10T16:42:07;38.60;6451.20
49052;DHT22;34866;48.670;18.260;2024-01-10T16:44:35;38.60;6451.20
49052;DHT22;34866;48.670;18.260;2024-01-10T16:47:02;38.70;6451.20
49052;DHT22;34866;48.670;18.260;2024-01-10T16:49:29;38.70;6502.40
49052;DHT22;34866;48.670;18.260;2024-01-10T16:51:54;39.00;6451.20
49052;DHT22;34866;48.670;18.260;2024-01-10T16:54:20;39.10;6451.20
49052;DHT22;34866;48.670;18.260;2024-01-10T16:56:46;39.20;460.80
49052;DHT22;34866;48.670;18.260;2024-01-10T16:59:12;39.20;6451.20
49052;DHT22;34866;48.670;18.260;2024-01-10T17:01:38;39.30;6451.20
49052;DHT22;34866;48.670;18.260;2024-01-10T17:11:21;39.10;6451.20
49052;DHT22;34866;48.670;18.260;2024-01-10T17:13:47;39.20;6451.20
49052;DHT22;34866;48.670;18.260;2024-01-10T17:16:13;64.10;204.80
49052;DHT22;34866;48.670;18.260;2024-01-10T17:18:39;64.20;6451.20
49052;DHT22;34866;48.670;18.260;2024-01-10T17:21:05;64.30;6451.20
49052;DHT22;34866;48.670;18.260;2024-01-10T17:23:31;64.40;6451.20
49052;DHT22;34866;48.670;18.260;2024-01-10T17:25:57;64.30;128.00
49052;DHT22;34866;48.670;18.260;2024-01-10T17:28:22;64.20;204.80
49052;DHT22;34866;48.670;18.260;2024-01-10T17:30:49;64.30;128.00
49052;DHT22;34866;48.670;18.260;2024-01-10T18:12:21;89.70;6425.60
49052;DHT22;34866;48.670;18.260;2024-01-10T18:14:47;90.00;6425.60
49052;DHT22;34866;48.670;18.260;2024-01-10T18:17:15;90.30;128.00
49052;DHT22;34866;48.670;18.260;2024-01-10T18:19:41;90.40;332.80
49052;DHT22;34866;48.670;18.260;2024-01-10T18:22:09;90.40;384.00
49052;DHT22;34866;48.670;18.260;2024-01-10T18:24:36;90.40;486.40
49052;DHT22;34866;48.670;18.260;2024-01-10T18:27:02;90.40;128.00
49052;DHT22;34866;48.670;18.260;2024-01-10T18:29:28;90.50;6425.60
49052;DHT22;34866;48.670;18.260;2024-01-10T18:31:53;90.50;281.60
49052;DHT22;34866;48.670;18.260;2024-01-10T18:34:22;115.20;6425.60
49052;DHT22;34866;48.670;18.260;2024-01-10T18:36:48;115.20;6425.60
49052;DHT22;34866;48.670;18.260;2024-01-10T18:39:14;115.30;6425.60
49052;DHT22;34866;48.670;18.260;2024-01-10T18:41:41;115.30;6425.60
49052;DHT22;34866;48.670;18.260;2024-01-10T18:44:08;115.30;6425.60
49052;DHT22;34866;48.670;18.260;2024-01-10T18:46:34;115.30;6425.60
49052;DHT22;34866;48.670;18.260;2024-01-10T18:48:59;115.30;6425.60
49052;DHT22;34866;48.670;18.260;2024-01-10T18:51:25;115.20;6425.60
49052;DHT22;34866;48.670;18.260;2024-01-10T18:53:50;115.40;6425.60
49052;DHT22;34866;48.670;18.260;2024-01-10T18:56:16;115.50;6425.60
49052;DHT22;34866;48.670;18.260;2024-01-10T18:58:43;115.70;6425.60
49052;DHT22;34866;48.670;18.260;2024-01-10T19:01:09;115.60;6425.60
49052;DHT22;34866;48.670;18.260;2024-01-10T19:03:35;115.70;6425.60
49052;DHT22;34866;48.670;18.260;2024-01-10T19:06:00;115.80;6425.60
49052;DHT22;34866;48.670;18.260;2024-01-10T19:08:27;115.80;6425.60
49052;DHT22;34866;48.670;18.260;2024-01-10T19:10:53;115.90;6425.60
49052;DHT22;34866;48.670;18.260;2024-01-10T19:13:19;115.90;6425.60
49052;DHT22;34866;48.670;18.260;2024-01-10T19:15:45;116.00;6425.60
49052;DHT22;34866;48.670;18.260;2024-01-10T19:18:10;115.90;6425.60
49052;DHT22;34866;48.670;18.260;2024-01-10T19:20:36;116.00;6425.60
49052;DHT22;34866;48.670;18.260;2024-01-10T19:23:02;116.10;435.20
49052;DHT22;34866;48.670;18.260;2024-01-10T19:25:27;140.80;6425.60
49052;DHT22;34866;48.670;18.260;2024-01-10T19:27:53;140.80;6425.60
49052;DHT22;34866;48.670;18.260;2024-01-10T19:30:22;140.80;6425.60
49052;DHT22;34866;48.670;18.260;2024-01-10T19:32:48;141.10;6425.60
49052;DHT22;34866;48.670;18.260;2024-01-10T19:35:15;141.00;6425.60
49052;DHT22;34866;48.670;18.260;2024-01-10T19:37:41;141.00;6425.60
49052;DHT22;34866;48.670;18.260;2024-01-10T19:40:07;141.00;6425.60
49052;DHT22;34866;48.670;18.260;2024-01-10T19:42:33;141.10;6425.60
49052;DHT22;34866;48.670;18.260;2024-01-10T19:44:58;141.30;6425.60
49052;DHT22;34866;48.670;18.260;2024-01-10T19:47:24;141.30;6425.60
49052;DHT22;34866;48.670;18.260;2024-01-10T19:49:50;141.20;6425.60
49052;DHT22;34866;48.670;18.260;2024-01-10T19:52:16;141.20;6425.60
49052;DHT22;34866;48.670;18.260;2024-01-10T19:54:42;141.30;6425.60
49052;DHT22;34866;48.670;18.260;2024-01-10T19:57:08;141.30;6425.60
49052;DHT22;34866;48.670;18.260;2024-01-10T19:59:34;141.40;6425.60
49052;DHT22;34866;48.670;18.260;2024-01-10T20:02:00;141.30;6425.60
49052;DHT22;34866;48.670;18.260;2024-01-10T20:04:26;141.50;6425.60
49052;DHT22;34866;48.670;18.260;2024-01-10T20:06:52;141.60;6425.60
49052;DHT22;34866;48.670;18.260;2024-01-10T20:09:19;166.50;6425.60
49052;DHT22;34866;48.670;18.260;2024-01-10T20:11:44;166.40;6425.60
49052;DHT22;34866;48.670;18.260;2024-01-10T20:14:10;141.60;6425.60
49052;DHT22;34866;48.670;18.260;2024-01-10T20:16:37;166.50;6425.60
49052;DHT22;34866;48.670;18.260;2024-01-10T20:19:03;166.60;6425.60
49052;DHT22;34866;48.670;18.260;2024-01-10T20:21:29;166.60;6425.60
49052;DHT22;34866;48.670;18.260;2024-01-10T20:23:57;166.60;6425.60
49052;DHT22;34866;48.670;18.260;2024-01-10T20:26:23;166.50;6425.60
49052;DHT22;34866;48.670;18.260;2024-01-10T20:28:49;166.70;6425.60
49052;DHT22;34866;48.670;18.260;2024-01-10T20:31:15;166.70;6425.60
49052;DHT22;34866;48.670;18.260;2024-01-10T20:33:41;166.70;6425.60
49052;DHT22;34866;48.670;18.260;2024-01-10T20:36:07;166.60;6425.60
49052;DHT22;34866;48.670;18.260;2024-01-10T20:38:33;166.80;6425.60
49052;DHT22;34866;48.670;18.260;2024-01-10T20:41:00;166.70;6425.60
49052;DHT22;34866;48.670;18.260;2024-01-10T20:43:26;166.70;6425.60
49052;DHT22;34866;48.670;18.260;2024-01-10T20:45:53;166.60;6425.60
49052;DHT22;34866;48.670;18.260;2024-01-10T20:48:19;166.70;6425.60
49052;DHT22;34866;48.670;18.260;2024-01-10T20:50:45;166.80;6425.60
49052;DHT22;34866;48.670;18.260;2024-01-10T20:53:10;166.80;6425.60
49052;DHT22;34866;48.670;18.260;2024-01-10T20:55:42;166.80;6425.60
49052;DHT22;34866;48.670;18.260;2024-01-10T20:58:07;166.80;6425.60
49052;DHT22;34866;48.670;18.260;2024-01-10T21:00:33;166.90;6425.60
49052;DHT22;34866;48.670;18.260;2024-01-10T21:03:02;166.90;6425.60
49052;DHT22;34866;48.670;18.260;2024-01-10T21:05:28;166.90;6425.60
49052;DHT22;34866;48.670;18.260;2024-01-10T21:07:54;166.90;6425.60
49052;DHT22;34866;48.670;18.260;2024-01-10T21:10:19;167.00;6425.60
49052;DHT22;34866;48.670;18.260;2024-01-10T21:12:45;166.90;6425.60
49052;DHT22;34866;48.670;18.260;2024-01-10T21:15:12;167.00;6425.60
49052;DHT22;34866;48.670;18.260;2024-01-10T21:17:38;167.00;6425.60
